Terminal Aerodrome Forecast
Issued by NWS Paducah, KY

Home | Current Version | Previous Version | Text Only | Print | Product List | Glossary On
Versions: 1 2 3 4 5 6 7 8 9 10 11 12 13 14 15 16 17 18 19 20 21 22 23 24
000
FTUS43 KPAH 211120
TAFPAH
TAF
KPAH 211120Z 2112/2212 07004KT P6SM SCT250
     FM211500 09009KT P6SM SCT250
     FM212100 09010KT P6SM SCT100 BKN250
     FM220300 08007KT P6SM SCT050 BKN100
     FM220600 07008KT P6SM SCT025 BKN050 PROB30 2206/2212 4SM -SHRA
      BKN025=

USA.gov is the U.S. government's official web portal to all federal, state and local government web resources and services.